createdAt,value
2018-09-03T00:00:58.065Z,15.90
2018-09-03T00:06:01.587Z,15.80
2018-09-03T00:11:05.265Z,15.70
2018-09-03T00:16:09.334Z,15.70
2018-09-03T00:21:12.935Z,15.60
2018-09-03T00:26:16.518Z,15.60
2018-09-03T00:31:25.354Z,15.60
2018-09-03T00:36:36.289Z,15.40
2018-09-03T00:41:45.066Z,15.30
2018-09-03T00:46:54.117Z,15.30
2018-09-03T00:51:57.761Z,15.20
2018-09-03T00:57:01.350Z,15.10
2018-09-03T01:02:04.960Z,15.30
2018-09-03T01:07:09.535Z,15.40
2018-09-03T01:12:13.213Z,15.20
2018-09-03T01:17:17.511Z,15.10
2018-09-03T01:22:21.134Z,15.10
2018-09-03T01:27:24.857Z,15.30
2018-09-03T01:32:28.435Z,15.20
2018-09-03T01:37:31.998Z,15.40
2018-09-03T01:42:35.647Z,15.40
2018-09-03T01:47:39.506Z,15.40
2018-09-03T01:52:43.067Z,15.40
2018-09-03T01:57:46.705Z,15.40
2018-09-03T02:02:50.335Z,15.30
2018-09-03T02:07:53.903Z,15.30
2018-09-03T02:12:57.534Z,15.40
2018-09-03T02:18:01.222Z,15.60
2018-09-03T02:23:06.880Z,16.00
2018-09-03T02:28:11.563Z,15.70
2018-09-03T02:33:17.345Z,15.50
2018-09-03T02:38:20.958Z,15.50
2018-09-03T02:43:24.505Z,15.50
2018-09-03T02:48:28.052Z,15.80
2018-09-03T02:53:32.733Z,15.60
2018-09-03T02:58:36.394Z,15.40
2018-09-03T03:03:40.046Z,15.40
2018-09-03T03:08:43.883Z,15.30
2018-09-03T03:13:47.695Z,15.50
2018-09-03T03:18:51.337Z,15.60
2018-09-03T03:23:56.990Z,15.40
2018-09-03T03:29:00.506Z,15.20
2018-09-03T03:34:04.061Z,15.10
2018-09-03T03:39:08.169Z,15.10
2018-09-03T03:44:11.784Z,15.10
2018-09-03T03:49:15.438Z,15.20
2018-09-03T03:54:19.193Z,15.20
2018-09-03T03:59:22.778Z,15.40
2018-09-03T04:04:26.371Z,15.50
2018-09-03T04:09:36.477Z,15.60
2018-09-03T04:14:40.022Z,15.70
2018-09-03T04:19:47.970Z,15.80
2018-09-03T04:24:51.622Z,15.70
2018-09-03T04:29:55.291Z,15.50
2018-09-03T04:34:58.858Z,15.50
2018-09-03T04:40:02.539Z,15.50
2018-09-03T04:45:06.174Z,15.40
2018-09-03T04:50:09.773Z,15.40
2018-09-03T04:55:13.381Z,15.40
2018-09-03T05:00:17.212Z,15.30
2018-09-03T05:05:20.860Z,15.30
2018-09-03T05:10:24.422Z,15.30
2018-09-03T05:15:28.027Z,16.20
2018-09-03T05:20:31.761Z,15.50
2018-09-03T05:25:35.379Z,15.40
2018-09-03T05:30:41.043Z,15.30
2018-09-03T05:35:44.621Z,15.40
2018-09-03T05:40:48.187Z,15.40
2018-09-03T05:45:51.778Z,15.30
2018-09-03T05:50:55.400Z,15.30
2018-09-03T05:56:00.106Z,15.40
2018-09-03T06:01:05.942Z,15.40
2018-09-03T06:06:11.550Z,15.40
2018-09-03T06:11:18.526Z,15.50
2018-09-03T06:16:22.742Z,15.60
2018-09-03T06:21:27.479Z,15.60
2018-09-03T06:26:31.098Z,15.60
2018-09-03T06:31:34.674Z,15.70
2018-09-03T06:36:38.246Z,15.70
2018-09-03T06:41:42.454Z,15.80
2018-09-03T06:46:46.095Z,16.00
2018-09-03T06:51:49.673Z,16.00
2018-09-03T06:56:53.353Z,16.30
2018-09-03T07:01:56.957Z,16.70
2018-09-03T07:07:00.554Z,16.90
2018-09-03T07:12:06.262Z,16.90
2018-09-03T07:17:09.942Z,17.00
2018-09-03T07:22:13.557Z,17.20
2018-09-03T07:27:17.101Z,17.10
2018-09-03T07:32:20.747Z,17.20
2018-09-03T07:37:24.393Z,17.40
2018-09-03T07:42:28.082Z,17.30
2018-09-03T07:47:31.653Z,17.40
2018-09-03T07:52:35.244Z,17.50
2018-09-03T07:57:38.850Z,17.40
2018-09-03T08:02:42.390Z,17.60
2018-09-03T08:07:45.923Z,17.80
2018-09-03T08:12:49.434Z,17.90
2018-09-03T08:17:53.068Z,17.90
2018-09-03T08:22:56.838Z,18.00
2018-09-03T08:28:00.474Z,17.90
2018-09-03T08:33:04.107Z,17.90
2018-09-03T08:38:07.854Z,17.90
2018-09-03T08:43:11.402Z,17.70
2018-09-03T08:48:14.995Z,17.60
2018-09-03T08:53:18.638Z,17.80
2018-09-03T08:58:22.266Z,18.00
2018-09-03T09:03:31.098Z,18.40
2018-09-03T09:08:34.703Z,18.60
2018-09-03T09:13:38.286Z,18.90
2018-09-03T09:18:41.922Z,18.80
2018-09-03T09:23:46.687Z,18.50
2018-09-03T09:28:52.354Z,18.20
2018-09-03T09:33:55.882Z,18.10
2018-09-03T09:38:59.518Z,18.20
2018-09-03T09:44:09.135Z,18.10
2018-09-03T09:49:18.014Z,18.00
2018-09-03T09:54:23.695Z,17.90
2018-09-03T09:59:27.197Z,18.00
2018-09-03T10:04:30.765Z,18.00
2018-09-03T10:09:34.291Z,18.10
2018-09-03T10:14:42.374Z,18.00
2018-09-03T10:19:45.974Z,18.10
2018-09-03T10:24:49.750Z,18.20
2018-09-03T10:29:53.419Z,18.30
2018-09-03T10:34:56.965Z,18.30
2018-09-03T10:40:00.497Z,18.30
2018-09-03T10:45:04.178Z,18.30
2018-09-03T10:50:07.726Z,18.40
2018-09-03T10:55:12.610Z,18.40
2018-09-03T11:00:17.226Z,18.40
2018-09-03T11:05:20.875Z,18.40
2018-09-03T11:10:24.448Z,18.50
2018-09-03T11:15:28.034Z,18.60
2018-09-03T11:20:31.670Z,18.80
2018-09-03T11:25:35.535Z,18.80
2018-09-03T11:30:39.207Z,18.80
2018-09-03T11:35:42.738Z,18.70
2018-09-03T11:40:46.280Z,18.70
2018-09-03T11:45:49.895Z,18.70
2018-09-03T11:50:53.747Z,18.70
2018-09-03T11:56:02.431Z,18.60
2018-09-03T12:01:06.289Z,18.60
2018-09-03T12:06:09.930Z,18.60
2018-09-03T12:11:13.558Z,18.60
2018-09-03T12:16:20.600Z,18.60
2018-09-03T12:21:24.196Z,18.60
2018-09-03T12:26:27.869Z,18.60
2018-09-03T12:31:31.465Z,18.70
2018-09-03T12:36:35.064Z,18.70
2018-09-03T12:41:38.774Z,18.70
2018-09-03T12:46:42.414Z,18.70
2018-09-03T12:51:46.110Z,18.80
2018-09-03T12:56:49.723Z,19.00
2018-09-03T13:01:53.406Z,18.90
2018-09-03T13:06:57.053Z,18.80
2018-09-03T13:12:02.895Z,18.90
2018-09-03T13:17:11.428Z,18.80
2018-09-03T13:22:15.126Z,18.80
2018-09-03T13:27:18.802Z,18.80
2018-09-03T13:32:22.408Z,18.80
2018-09-03T13:37:27.143Z,18.70
2018-09-03T13:42:31.000Z,18.80
2018-09-03T13:47:35.523Z,18.80
2018-09-03T13:52:39.267Z,18.70
2018-09-03T13:57:44.012Z,18.60
2018-09-03T14:02:47.724Z,18.60
2018-09-03T14:07:51.366Z,18.50
2018-09-03T14:12:55.022Z,18.60
2018-09-03T14:17:58.645Z,18.60
2018-09-03T14:23:02.290Z,18.70
2018-09-03T14:28:07.183Z,18.80
2018-09-03T14:33:11.888Z,18.80
2018-09-03T14:38:15.444Z,18.70
2018-09-03T14:43:19.034Z,18.70
2018-09-03T14:48:22.613Z,18.70
2018-09-03T14:53:26.364Z,18.60
2018-09-03T14:58:30.771Z,18.60
2018-09-03T15:03:36.586Z,18.60
2018-09-03T15:08:40.186Z,18.60
2018-09-03T15:14:02.820Z,18.60
2018-09-03T15:19:06.849Z,18.60
2018-09-03T15:24:16.140Z,18.70
2018-09-03T15:29:24.307Z,18.70
2018-09-03T15:34:28.060Z,18.80
2018-09-03T15:39:32.797Z,18.80
2018-09-03T15:44:36.508Z,18.90
2018-09-03T15:49:40.304Z,19.10
2018-09-03T15:54:49.920Z,19.10
2018-09-03T15:59:54.656Z,19.10
2018-09-03T16:04:58.264Z,19.10
2018-09-03T16:10:02.057Z,19.10
2018-09-03T16:15:05.849Z,19.20
2018-09-03T16:20:12.768Z,19.20
2018-09-03T16:25:17.431Z,19.10
2018-09-03T16:30:21.140Z,19.10
2018-09-03T16:35:25.593Z,19.00
2018-09-03T16:40:30.925Z,19.00
2018-09-03T16:45:34.996Z,19.00
2018-09-03T16:50:42.803Z,19.00
2018-09-03T16:55:46.405Z,18.90
2018-09-03T17:00:53.583Z,18.90
2018-09-03T17:05:57.175Z,19.00
2018-09-03T17:11:02.115Z,18.90
2018-09-03T17:16:05.695Z,18.80
2018-09-03T17:21:11.431Z,18.80
2018-09-03T17:26:18.384Z,18.80
2018-09-03T17:31:23.144Z,18.80
2018-09-03T17:36:27.029Z,18.80
2018-09-03T17:41:30.743Z,18.80
2018-09-03T17:46:35.335Z,18.60
2018-09-03T17:51:40.214Z,18.60
2018-09-03T17:56:45.961Z,18.60
2018-09-03T18:01:54.683Z,18.60
2018-09-03T18:07:00.878Z,18.40
2018-09-03T18:12:04.617Z,18.40
2018-09-03T18:17:10.280Z,18.30
2018-09-03T18:22:14.075Z,18.20
2018-09-03T18:27:17.722Z,18.20
2018-09-03T18:32:22.440Z,18.10
2018-09-03T18:37:26.160Z,18.10
2018-09-03T18:42:34.320Z,18.00
2018-09-03T18:47:42.628Z,18.00
2018-09-03T18:52:46.331Z,18.00
2018-09-03T18:57:52.165Z,17.90
2018-09-03T19:02:57.937Z,17.90
2018-09-03T19:08:02.166Z,18.00
2018-09-03T19:13:09.141Z,18.00
2018-09-03T19:18:12.771Z,17.90
2018-09-03T19:23:17.573Z,17.80
2018-09-03T19:28:21.336Z,17.80
2018-09-03T19:33:25.337Z,17.70
2018-09-03T19:38:32.609Z,17.80
2018-09-03T19:43:38.430Z,17.80
2018-09-03T19:48:42.342Z,17.90
2018-09-03T19:53:46.725Z,17.80
2018-09-03T19:58:50.587Z,17.80
2018-09-03T20:03:54.383Z,17.80
2018-09-03T20:08:59.542Z,17.80
2018-09-03T20:14:07.395Z,17.70
2018-09-03T20:19:11.149Z,17.60
2018-09-03T20:24:16.027Z,17.60
2018-09-03T20:29:19.749Z,17.60
2018-09-03T20:34:24.519Z,17.50
2018-09-03T20:39:28.209Z,17.40
2018-09-03T20:44:31.818Z,17.40
2018-09-03T20:49:35.466Z,17.40
2018-09-03T20:54:39.338Z,17.30
2018-09-03T20:59:45.038Z,17.30
2018-09-03T21:04:48.602Z,17.20
2018-09-03T21:09:53.842Z,17.30
2018-09-03T21:15:01.106Z,17.20
2018-09-03T21:20:04.999Z,17.20
2018-09-03T21:25:08.585Z,17.10
2018-09-03T21:30:12.253Z,17.20
2018-09-03T21:35:16.125Z,17.00
2018-09-03T21:40:19.690Z,16.90
2018-09-03T21:45:23.298Z,16.90
2018-09-03T21:50:28.002Z,16.90
2018-09-03T21:55:32.406Z,16.80
2018-09-03T22:00:36.104Z,16.80
2018-09-03T22:05:39.670Z,16.90
2018-09-03T22:10:43.233Z,16.80
2018-09-03T22:15:47.822Z,16.70
2018-09-03T22:20:51.412Z,16.70
2018-09-03T22:25:55.004Z,16.80
2018-09-03T22:30:58.681Z,16.80
2018-09-03T22:36:02.595Z,16.70
2018-09-03T22:41:06.203Z,16.70
2018-09-03T22:46:11.894Z,16.70
2018-09-03T22:51:15.442Z,16.70
2018-09-03T22:56:19.130Z,16.70
2018-09-03T23:01:27.357Z,16.70
2018-09-03T23:06:30.926Z,16.80
2018-09-03T23:11:34.506Z,16.80
2018-09-03T23:16:38.394Z,16.70
2018-09-03T23:21:42.990Z,16.80
2018-09-03T23:26:49.936Z,16.80
2018-09-03T23:31:53.579Z,16.70
2018-09-03T23:36:57.216Z,16.70
2018-09-03T23:42:00.806Z,16.80
2018-09-03T23:47:04.903Z,16.80
2018-09-03T23:52:08.458Z,16.70
2018-09-03T23:57:12.070Z,16.80
